createdAt,value
2023-04-11T00:05:41.330Z,11.30
2023-04-11T00:11:43.900Z,11.00
2023-04-11T00:17:46.277Z,10.80
2023-04-11T00:23:49.025Z,10.50
2023-04-11T00:29:58.230Z,10.20
2023-04-11T00:36:00.094Z,10.10
2023-04-11T00:42:07.135Z,10.00
2023-04-11T00:48:09.220Z,9.80
2023-04-11T00:54:12.165Z,9.80
2023-04-11T01:00:14.625Z,9.70
2023-04-11T01:06:18.836Z,9.80
2023-04-11T01:12:21.961Z,9.80
2023-04-11T01:18:25.664Z,9.90
2023-04-11T01:24:28.154Z,10.00
2023-04-11T01:30:30.822Z,9.90
2023-04-11T01:36:32.964Z,9.80
2023-04-11T01:42:35.801Z,9.70
2023-04-11T01:48:38.271Z,9.50
2023-04-11T01:54:40.317Z,9.50
2023-04-11T02:00:42.441Z,9.40
2023-04-11T02:06:44.271Z,9.40
2023-04-11T02:12:46.904Z,9.20
2023-04-11T02:18:48.902Z,9.10
2023-04-11T02:24:51.404Z,9.00
2023-04-11T02:30:53.251Z,9.00
2023-04-11T02:36:55.488Z,9.00
2023-04-11T02:42:57.226Z,9.00
2023-04-11T02:48:59.187Z,8.90
2023-04-11T02:55:01.395Z,8.80
2023-04-11T03:01:08.172Z,8.70
2023-04-11T03:07:09.953Z,8.60
2023-04-11T03:13:11.802Z,8.60
2023-04-11T03:19:13.989Z,8.50
2023-04-11T03:25:15.906Z,8.50
2023-04-11T03:31:19.526Z,8.40
2023-04-11T03:37:23.120Z,8.40
2023-04-11T03:43:24.976Z,8.70
2023-04-11T03:49:27.407Z,8.90
2023-04-11T03:55:32.011Z,9.10
2023-04-11T04:01:38.158Z,9.20
2023-04-11T04:07:40.934Z,9.20
2023-04-11T04:13:57.834Z,9.10
2023-04-11T04:20:00.067Z,9.10
2023-04-11T04:26:02.345Z,9.20
2023-04-11T04:32:13.147Z,9.00
2023-04-11T04:38:20.917Z,8.80
2023-04-11T04:44:28.489Z,8.80
2023-04-11T04:50:34.357Z,8.80
2023-04-11T04:56:36.246Z,8.80
2023-04-11T05:02:40.876Z,8.60
2023-04-11T05:08:43.262Z,8.50
2023-04-11T05:14:47.728Z,8.50
2023-04-11T05:20:49.829Z,8.40
2023-04-11T05:26:56.792Z,8.40
2023-04-11T05:32:58.790Z,8.60
2023-04-11T05:39:01.339Z,8.60
2023-04-11T05:45:03.290Z,8.80
2023-04-11T05:51:05.866Z,9.10
2023-04-11T05:57:09.014Z,9.50
2023-04-11T06:03:10.878Z,9.60
2023-04-11T06:09:13.857Z,9.60
2023-04-11T06:15:15.635Z,9.70
2023-04-11T06:21:17.602Z,9.90
2023-04-11T06:27:19.744Z,10.30
2023-04-11T06:33:21.617Z,10.80
2023-04-11T06:39:23.398Z,11.10
2023-04-11T06:45:25.298Z,11.20
2023-04-11T06:51:29.922Z,10.70
2023-04-11T06:57:32.118Z,10.20
2023-04-11T07:03:33.979Z,9.90
2023-04-11T07:09:36.036Z,9.70
2023-04-11T07:15:37.774Z,9.70
2023-04-11T07:21:39.897Z,9.80
2023-04-11T07:27:43.880Z,10.30
2023-04-11T07:33:45.848Z,10.10
2023-04-11T07:39:48.328Z,9.80
2023-04-11T07:45:50.173Z,9.60
2023-04-11T07:51:51.932Z,9.60
2023-04-11T07:57:53.765Z,9.60
2023-04-11T08:03:56.475Z,9.40
2023-04-11T08:09:58.534Z,7.90
2023-04-11T08:16:00.221Z,7.50
2023-04-11T08:22:01.942Z,7.40
2023-04-11T08:28:05.132Z,7.60
2023-04-11T08:34:07.558Z,8.00
2023-04-11T08:40:09.660Z,8.30
2023-04-11T08:46:12.815Z,8.60
2023-04-11T08:52:14.653Z,8.80
2023-04-11T08:58:16.652Z,9.00
2023-04-11T09:04:18.383Z,9.40
2023-04-11T09:10:20.487Z,9.60
2023-04-11T09:16:22.274Z,10.10
2023-04-11T09:22:34.736Z,10.70
2023-04-11T09:28:40.506Z,10.80
2023-04-11T09:34:42.657Z,11.40
2023-04-11T09:40:44.495Z,12.00
2023-04-11T09:46:59.115Z,11.70
2023-04-11T09:53:00.924Z,11.20
2023-04-11T09:59:02.999Z,11.00
2023-04-11T10:05:05.246Z,11.00
2023-04-11T10:11:11.481Z,11.50
2023-04-11T10:17:14.898Z,12.10
2023-04-11T10:23:18.117Z,12.60
2023-04-11T10:29:36.443Z,11.80
2023-04-11T10:35:58.238Z,11.20
2023-04-11T10:42:19.937Z,11.20
2023-04-11T10:48:21.781Z,11.30
2023-04-11T10:54:26.589Z,11.40
2023-04-11T11:00:28.314Z,12.00
2023-04-11T11:06:36.184Z,12.40
2023-04-11T11:12:51.920Z,12.10
2023-04-11T11:18:54.535Z,12.20
2023-04-11T11:25:06.900Z,12.10
2023-04-11T11:31:08.637Z,12.10
2023-04-11T11:37:10.374Z,12.40
2023-04-11T11:43:12.216Z,12.40
2023-04-11T11:49:14.018Z,12.30
2023-04-11T11:55:18.839Z,11.20
2023-04-11T12:01:22.336Z,10.30
2023-04-11T12:07:24.157Z,10.70
2023-04-11T12:13:27.687Z,11.10
2023-04-11T12:19:29.377Z,11.30
2023-04-11T12:25:31.782Z,11.70
2023-04-11T12:31:44.516Z,12.20
2023-04-11T12:37:47.508Z,12.70
2023-04-11T12:43:49.251Z,12.60
2023-04-11T12:49:51.397Z,12.90
2023-04-11T12:55:53.178Z,13.70
2023-04-11T13:01:56.341Z,13.50
2023-04-11T13:07:58.167Z,13.20
2023-04-11T13:13:59.854Z,13.00
2023-04-11T13:20:01.793Z,12.80
2023-04-11T13:26:03.637Z,12.80
2023-04-11T13:32:05.632Z,12.80
2023-04-11T13:38:07.416Z,12.70
2023-04-11T13:44:09.174Z,12.80
2023-04-11T13:50:11.128Z,12.50
2023-04-11T13:56:12.926Z,12.60
2023-04-11T14:02:14.648Z,13.20
2023-04-11T14:08:16.361Z,13.90
2023-04-11T14:14:18.145Z,13.90
2023-04-11T14:20:19.933Z,13.30
2023-04-11T14:26:24.048Z,12.80
2023-04-11T14:32:25.793Z,12.80
2023-04-11T14:38:27.598Z,13.00
2023-04-11T14:44:29.786Z,13.00
2023-04-11T14:50:32.195Z,13.30
2023-04-11T14:56:33.877Z,13.20
2023-04-11T15:02:35.904Z,12.30
2023-04-11T15:08:37.999Z,11.50
2023-04-11T15:14:39.788Z,11.50
2023-04-11T15:20:41.524Z,11.60
2023-04-11T15:26:44.631Z,11.50
2023-04-11T15:32:46.581Z,11.60
2023-04-11T15:38:48.301Z,11.40
2023-04-11T15:44:50.047Z,11.30
2023-04-11T15:50:51.813Z,11.60
2023-04-11T15:56:53.734Z,12.50
2023-04-11T16:02:55.911Z,13.80
2023-04-11T16:08:57.867Z,15.20
2023-04-11T16:14:59.598Z,16.00
2023-04-11T16:21:01.407Z,17.00
2023-04-11T16:27:03.181Z,16.70
2023-04-11T16:33:05.049Z,16.20
2023-04-11T16:39:07.042Z,15.30
2023-04-11T16:45:09.828Z,14.60
2023-04-11T16:51:12.260Z,14.20
2023-04-11T16:57:14.058Z,13.90
2023-04-11T17:03:17.783Z,14.00
2023-04-11T17:09:19.597Z,13.60
2023-04-11T17:15:21.398Z,13.50
2023-04-11T17:21:23.214Z,13.30
2023-04-11T17:27:24.942Z,13.40
2023-04-11T17:33:26.627Z,13.60
2023-04-11T17:39:28.382Z,13.90
2023-04-11T17:45:30.172Z,13.90
2023-04-11T17:51:32.017Z,13.40
2023-04-11T17:57:36.298Z,12.70
2023-04-11T18:03:39.759Z,11.80
2023-04-11T18:09:42.388Z,10.90
2023-04-11T18:15:44.255Z,10.00
2023-04-11T18:21:46.128Z,9.20
2023-04-11T18:27:48.164Z,8.60
2023-04-11T18:33:51.092Z,8.10
2023-04-11T18:39:52.834Z,7.30
2023-04-11T18:45:54.593Z,6.60
2023-04-11T18:51:56.624Z,6.00
2023-04-11T18:58:00.381Z,5.60
2023-04-11T19:04:03.362Z,5.10
2023-04-11T19:10:08.004Z,4.80
2023-04-11T19:16:09.851Z,4.60
2023-04-11T19:22:11.920Z,4.40
2023-04-11T19:28:13.654Z,4.20
2023-04-11T19:34:18.002Z,4.10
2023-04-11T19:40:23.168Z,4.00
2023-04-11T19:46:25.013Z,3.90
2023-04-11T19:52:27.304Z,3.70
2023-04-11T19:58:29.452Z,3.40
2023-04-11T20:04:31.613Z,3.30
2023-04-11T20:10:34.244Z,3.10
2023-04-11T20:16:36.463Z,3.10
2023-04-11T20:22:39.189Z,3.00
2023-04-11T20:28:40.986Z,2.90
2023-04-11T20:34:42.696Z,2.80
2023-04-11T20:40:44.386Z,2.70
2023-04-11T20:46:46.222Z,2.70
2023-04-11T20:52:51.325Z,2.70
2023-04-11T20:58:53.082Z,2.80
2023-04-11T21:04:55.563Z,2.70
2023-04-11T21:10:57.280Z,2.60
2023-04-11T21:16:58.982Z,2.40
2023-04-11T21:23:00.750Z,2.20
2023-04-11T21:29:02.588Z,2.10
2023-04-11T21:35:11.472Z,2.00
2023-04-11T21:41:13.257Z,1.90
2023-04-11T21:47:14.971Z,1.80
2023-04-11T21:53:17.002Z,1.80
2023-04-11T21:59:18.747Z,1.80
2023-04-11T22:05:21.739Z,1.90
2023-04-11T22:11:24.435Z,1.80
2023-04-11T22:17:26.143Z,1.80
2023-04-11T22:23:27.838Z,1.70
2023-04-11T22:29:30.297Z,1.70
2023-04-11T22:35:32.753Z,1.60
2023-04-11T22:41:35.400Z,1.60
2023-04-11T22:47:38.044Z,1.60
2023-04-11T22:53:42.183Z,1.80
2023-04-11T22:59:43.965Z,1.70
2023-04-11T23:05:45.760Z,1.80
2023-04-11T23:11:47.673Z,1.90
2023-04-11T23:17:49.918Z,2.10
2023-04-11T23:23:52.364Z,2.40
2023-04-11T23:29:54.310Z,2.70
2023-04-11T23:35:56.042Z,2.60
2023-04-11T23:41:57.761Z,2.80
2023-04-11T23:47:59.573Z,2.90
2023-04-11T23:54:01.555Z,3.20
